createdAt,value
2022-10-30T00:00:53.792Z,101660.38
2022-10-30T00:03:21.381Z,101658.59
2022-10-30T00:05:51.657Z,101672.56
2022-10-30T00:08:24.031Z,101663.84
2022-10-30T00:10:51.385Z,101665.63
2022-10-30T00:13:20.301Z,101663.94
2022-10-30T00:15:52.856Z,101660.41
2022-10-30T00:18:21.397Z,101663.91
2022-10-30T00:20:49.800Z,101662.19
2022-10-30T00:23:17.672Z,101672.63
2022-10-30T00:25:45.139Z,101663.94
2022-10-30T00:28:12.613Z,101662.19
2022-10-30T00:30:40.277Z,101660.44
2022-10-30T00:33:07.727Z,101656.97
2022-10-30T00:35:35.227Z,101653.47
2022-10-30T00:38:02.874Z,101655.19
2022-10-30T00:40:30.429Z,101665.66
2022-10-30T00:42:57.957Z,101656.97
2022-10-30T00:45:26.282Z,101663.94
2022-10-30T00:48:01.157Z,101663.94
2022-10-30T00:50:38.081Z,101662.22
2022-10-30T00:53:12.735Z,101672.69
2022-10-30T00:55:45.621Z,101665.72
2022-10-30T00:58:17.351Z,101666.59
2022-10-30T01:00:50.331Z,101667.50
2022-10-30T01:03:19.621Z,101661.44
2022-10-30T01:05:52.443Z,101638.00
2022-10-30T01:08:20.732Z,101664.94
2022-10-30T01:10:49.354Z,101658.84
2022-10-30T01:13:21.818Z,101665.88
2022-10-30T01:15:57.979Z,101660.69
2022-10-30T01:18:43.955Z,101650.31
2022-10-30T01:21:28.590Z,101660.78
2022-10-30T01:24:14.467Z,101666.03
2022-10-30T01:26:53.395Z,101675.69
2022-10-30T01:29:52.035Z,101672.22
2022-10-30T01:32:38.187Z,101681.84
2022-10-30T01:35:18.914Z,101680.16
2022-10-30T01:37:56.261Z,101683.66
2022-10-30T01:40:24.363Z,101691.53
2022-10-30T01:42:54.686Z,101701.13
2022-10-30T01:45:57.083Z,101699.44
2022-10-30T01:48:33.532Z,101688.13
2022-10-30T01:51:24.429Z,101690.75
2022-10-30T01:53:55.015Z,101692.50
2022-10-30T01:56:48.246Z,101694.28
2022-10-30T01:59:23.549Z,101685.63
2022-10-30T02:01:51.281Z,101692.59
2022-10-30T02:04:19.148Z,101691.72
2022-10-30T02:06:46.823Z,101696.13
2022-10-30T02:09:17.318Z,101685.69
2022-10-30T02:11:47.179Z,101697.03
2022-10-30T02:14:19.660Z,101702.25
2022-10-30T02:16:51.711Z,101702.25
2022-10-30T02:19:20.004Z,101692.69
2022-10-30T02:21:47.489Z,101690.13
2022-10-30T02:24:14.995Z,101704.91
2022-10-30T02:26:42.526Z,101704.03
2022-10-30T02:29:09.992Z,101706.69
2022-10-30T02:31:37.992Z,101699.75
2022-10-30T02:34:05.695Z,101712.81
2022-10-30T02:36:33.228Z,101711.06
2022-10-30T02:39:01.148Z,101718.03
2022-10-30T02:41:28.592Z,101700.63
2022-10-30T02:43:56.557Z,101693.69
2022-10-30T02:46:24.057Z,101714.56
2022-10-30T02:48:51.983Z,101705.84
2022-10-30T02:51:19.428Z,101709.34
2022-10-30T02:53:47.560Z,101706.75
2022-10-30T02:56:16.092Z,101702.41
2022-10-30T02:58:43.862Z,101707.63
2022-10-30T03:01:15.659Z,101716.34
2022-10-30T03:03:43.931Z,101719.84
2022-10-30T03:06:13.908Z,101716.34
2022-10-30T03:08:41.395Z,101708.53
2022-10-30T03:11:16.825Z,101715.50
2022-10-30T03:13:45.940Z,101712.00
2022-10-30T03:16:19.014Z,101684.19
2022-10-30T03:18:47.204Z,101724.22
2022-10-30T03:21:21.081Z,101729.44
2022-10-30T03:23:50.497Z,101726.81
2022-10-30T03:26:18.918Z,101725.97
2022-10-30T03:28:46.685Z,101710.28
2022-10-30T03:31:17.735Z,101710.28
2022-10-30T03:33:46.364Z,101723.38
2022-10-30T03:36:15.749Z,101726.84
2022-10-30T03:38:43.723Z,101728.59
2022-10-30T03:41:11.589Z,101725.97
2022-10-30T03:43:39.060Z,101734.69
2022-10-30T03:46:06.640Z,101718.16
2022-10-30T03:48:34.112Z,101719.03
2022-10-30T03:51:01.927Z,101722.50
2022-10-30T03:53:29.890Z,101719.88
2022-10-30T03:56:02.720Z,101719.03
2022-10-30T03:58:30.827Z,101726.84
2022-10-30T04:01:02.792Z,101737.28
2022-10-30T04:03:30.560Z,101720.78
2022-10-30T04:05:58.113Z,101715.56
2022-10-30T04:08:25.928Z,101710.31
2022-10-30T04:10:53.527Z,101707.72
2022-10-30T04:13:21.293Z,101717.31
2022-10-30T04:15:56.000Z,101732.97
2022-10-30T04:18:25.558Z,101721.63
2022-10-30T04:20:53.031Z,101722.50
2022-10-30T04:23:22.336Z,101727.72
2022-10-30T04:25:50.295Z,101712.06
2022-10-30T04:28:17.909Z,101718.16
2022-10-30T04:30:46.924Z,101713.81
2022-10-30T04:33:15.244Z,101728.59
2022-10-30T04:35:43.613Z,101738.16
2022-10-30T04:38:15.626Z,101732.94
2022-10-30T04:40:44.260Z,101732.94
2022-10-30T04:43:13.110Z,101730.31
2022-10-30T04:45:41.610Z,101740.78
2022-10-30T04:48:15.789Z,101729.47
2022-10-30T04:50:44.341Z,101745.09
2022-10-30T04:53:21.056Z,101741.66
2022-10-30T04:55:48.494Z,101742.50
2022-10-30T04:58:16.011Z,101737.28
2022-10-30T05:00:43.534Z,101736.41
2022-10-30T05:03:19.314Z,101734.69
2022-10-30T05:05:48.103Z,101732.03
2022-10-30T05:08:15.653Z,101736.38
2022-10-30T05:10:43.116Z,101742.47
2022-10-30T05:13:12.268Z,101743.34
2022-10-30T05:15:39.995Z,101729.41
2022-10-30T05:18:07.459Z,101727.66
2022-10-30T05:20:35.011Z,101730.28
2022-10-30T05:23:02.465Z,101717.22
2022-10-30T05:25:30.130Z,101715.47
2022-10-30T05:28:06.180Z,101708.53
2022-10-30T05:30:36.177Z,101702.41
2022-10-30T05:33:06.192Z,101697.22
2022-10-30T05:35:34.960Z,101705.03
2022-10-30T05:38:04.273Z,101704.16
2022-10-30T05:40:31.950Z,101705.91
2022-10-30T05:42:59.847Z,101708.50
2022-10-30T05:45:27.558Z,101705.03
2022-10-30T05:47:57.064Z,101705.03
2022-10-30T05:50:25.594Z,101705.88
2022-10-30T05:53:00.422Z,101714.56
2022-10-30T05:55:28.163Z,101715.44
2022-10-30T05:58:00.398Z,101718.03
2022-10-30T06:00:30.676Z,101714.56
2022-10-30T06:03:07.396Z,101724.13
2022-10-30T06:05:37.028Z,101729.31
2022-10-30T06:08:05.885Z,101733.69
2022-10-30T06:10:33.804Z,101731.06
2022-10-30T06:13:03.612Z,101724.94
2022-10-30T06:15:32.348Z,101731.06
2022-10-30T06:18:01.002Z,101726.69
2022-10-30T06:20:31.285Z,101735.38
2022-10-30T06:23:03.375Z,101733.66
2022-10-30T06:25:37.907Z,101735.41
2022-10-30T06:28:08.504Z,101744.09
2022-10-30T06:30:36.196Z,101744.09
2022-10-30T06:33:06.073Z,101744.97
2022-10-30T06:35:34.685Z,101747.56
2022-10-30T06:38:02.468Z,101732.78
2022-10-30T06:40:30.552Z,101741.47
2022-10-30T06:42:58.714Z,101746.66
2022-10-30T06:45:26.687Z,101752.72
2022-10-30T06:47:54.224Z,101750.13
2022-10-30T06:50:24.109Z,101751.00
2022-10-30T06:52:51.697Z,101749.25
2022-10-30T06:55:19.553Z,101747.53
2022-10-30T06:57:47.073Z,101738.84
2022-10-30T07:00:15.064Z,101735.34
2022-10-30T07:02:42.502Z,101743.13
2022-10-30T07:05:10.098Z,101745.78
2022-10-30T07:07:37.562Z,101742.31
2022-10-30T07:10:05.216Z,101751.00
2022-10-30T07:12:32.651Z,101757.13
2022-10-30T07:15:00.113Z,101758.84
2022-10-30T07:17:27.583Z,101753.63
2022-10-30T07:19:55.456Z,101749.31
2022-10-30T07:22:22.977Z,101729.31
2022-10-30T07:24:50.449Z,101739.72
2022-10-30T07:27:17.916Z,101743.25
2022-10-30T07:29:45.424Z,101747.59
2022-10-30T07:32:14.097Z,101738.06
2022-10-30T07:34:41.777Z,101738.06
2022-10-30T07:37:09.298Z,101729.38
2022-10-30T07:39:36.740Z,101727.66
2022-10-30T07:42:04.332Z,101734.66
2022-10-30T07:44:31.787Z,101734.66
2022-10-30T07:46:59.228Z,101731.22
2022-10-30T07:49:26.694Z,101722.47
2022-10-30T07:51:54.155Z,101733.81
2022-10-30T07:54:21.603Z,101728.56
2022-10-30T07:56:49.101Z,101725.91
2022-10-30T07:59:16.572Z,101732.88
2022-10-30T08:01:44.213Z,101728.47
2022-10-30T08:04:13.973Z,101731.06
2022-10-30T08:06:41.447Z,101731.03
2022-10-30T08:09:09.090Z,101731.00
2022-10-30T08:11:36.818Z,101731.00
2022-10-30T08:14:04.396Z,101727.50
2022-10-30T08:16:31.860Z,101734.44
2022-10-30T08:18:59.417Z,101728.28
2022-10-30T08:21:27.021Z,101727.38
2022-10-30T08:23:54.520Z,101722.97
2022-10-30T08:26:21.993Z,101723.78
2022-10-30T08:28:49.434Z,101732.38
2022-10-30T08:31:16.881Z,101733.25
2022-10-30T08:33:44.376Z,101728.84
2022-10-30T08:36:11.839Z,101722.72
2022-10-30T08:38:39.269Z,101718.28
2022-10-30T08:41:06.814Z,101719.13
2022-10-30T08:43:34.546Z,101728.69
2022-10-30T08:46:02.973Z,101730.44
2022-10-30T08:48:30.451Z,101722.56
2022-10-30T08:51:01.936Z,101719.84
2022-10-30T08:53:29.516Z,101720.63
2022-10-30T08:55:57.016Z,101726.66
2022-10-30T08:58:24.483Z,101723.13
2022-10-30T09:00:53.915Z,101719.56
2022-10-30T09:03:24.816Z,101712.50
2022-10-30T09:05:52.276Z,101697.47
2022-10-30T09:08:19.768Z,101695.56
2022-10-30T09:10:47.249Z,101697.13
2022-10-30T09:13:14.707Z,101685.63
2022-10-30T09:15:42.162Z,101695.81
2022-10-30T09:18:09.947Z,101688.56
2022-10-30T09:20:38.286Z,101693.47
2022-10-30T09:23:05.898Z,101698.38
2022-10-30T09:25:33.357Z,101692.91
2022-10-30T09:28:01.830Z,101695.28
2022-10-30T09:30:29.516Z,101694.91
2022-10-30T09:33:03.895Z,101696.28
2022-10-30T09:35:32.296Z,101697.69
2022-10-30T09:38:00.008Z,101693.88
2022-10-30T09:40:30.633Z,101699.94
2022-10-30T09:43:09.619Z,101691.25
2022-10-30T09:46:00.979Z,101706.84
2022-10-30T09:48:42.386Z,101697.25
2022-10-30T09:51:34.093Z,101687.50
2022-10-30T09:54:11.555Z,101690.03
2022-10-30T09:57:02.245Z,101686.13
2022-10-30T09:59:59.142Z,101683.53
2022-10-30T10:02:54.420Z,101671.53
2022-10-30T10:05:52.251Z,101673.25
2022-10-30T10:08:40.822Z,101674.19
2022-10-30T10:11:49.412Z,101680.31
2022-10-30T10:14:30.834Z,101685.44
2022-10-30T10:17:00.672Z,101682.44
2022-10-30T10:19:44.696Z,101682.63
2022-10-30T10:22:23.818Z,101682.34
2022-10-30T10:24:52.325Z,101676.19
2022-10-30T10:28:00.729Z,101685.34
2022-10-30T10:30:38.208Z,101678.38
2022-10-30T10:33:27.151Z,101683.13
2022-10-30T10:36:21.889Z,101681.34
2022-10-30T10:39:47.164Z,101687.25
2022-10-30T10:42:33.194Z,101671.00
2022-10-30T10:45:32.487Z,101679.72
2022-10-30T10:50:57.626Z,101677.56
2022-10-30T10:53:43.535Z,101674.22
2022-10-30T10:56:11.732Z,101673.03
2022-10-30T10:58:59.205Z,101666.53
2022-10-30T11:01:44.106Z,101672.75
2022-10-30T11:04:15.398Z,101667.34
2022-10-30T11:06:47.666Z,101665.09
2022-10-30T11:09:20.269Z,101665.09
2022-10-30T11:11:48.946Z,101654.44
2022-10-30T11:14:22.552Z,101641.47
2022-10-30T11:16:52.790Z,101642.28
2022-10-30T11:19:20.442Z,101642.22
2022-10-30T11:21:52.993Z,101629.53
2022-10-30T11:24:35.034Z,101633.50
2022-10-30T11:27:23.760Z,101631.38
2022-10-30T11:29:58.463Z,101630.69
2022-10-30T11:32:31.378Z,101634.97
2022-10-30T11:35:15.242Z,101623.25
2022-10-30T11:37:44.391Z,101624.19
2022-10-30T11:40:11.959Z,101627.53
2022-10-30T11:42:47.038Z,101625.03
2022-10-30T11:45:26.968Z,101625.97
2022-10-30T11:47:58.296Z,101620.38
2022-10-30T11:50:33.531Z,101621.25
2022-10-30T11:53:13.217Z,101633.31
2022-10-30T11:55:46.144Z,101611.31
2022-10-30T11:58:27.166Z,101588.53
2022-10-30T12:01:02.196Z,101608.97
2022-10-30T12:03:35.916Z,101612.06
2022-10-30T12:06:20.538Z,101622.78
2022-10-30T12:09:12.696Z,101619.19
2022-10-30T12:11:43.333Z,101615.66
2022-10-30T12:14:20.274Z,101618.13
2022-10-30T12:16:53.230Z,101608.09
2022-10-30T12:19:23.787Z,101609.88
2022-10-30T12:21:54.006Z,101616.03
2022-10-30T12:24:44.559Z,101607.06
2022-10-30T12:27:21.414Z,101620.16
2022-10-30T12:30:09.684Z,101600.22
2022-10-30T12:32:49.060Z,101605.94
2022-10-30T12:35:36.696Z,101601.09
2022-10-30T12:38:13.529Z,101598.06
2022-10-30T12:40:47.796Z,101601.44
2022-10-30T12:43:23.033Z,101597.25
2022-10-30T12:45:53.811Z,101602.91
2022-10-30T12:48:37.338Z,101600.16
2022-10-30T12:51:42.135Z,101596.47
2022-10-30T12:54:18.364Z,101588.56
2022-10-30T12:56:50.320Z,101576.63
2022-10-30T12:59:29.939Z,101592.34
2022-10-30T13:02:12.993Z,101582.94
2022-10-30T13:04:45.913Z,101573.50
2022-10-30T13:07:36.210Z,101586.88
2022-10-30T13:10:08.241Z,101576.19
2022-10-30T13:12:40.478Z,101584.19
2022-10-30T13:15:22.070Z,101570.16
2022-10-30T13:17:50.890Z,101582.31
2022-10-30T13:20:19.217Z,101587.50
2022-10-30T13:23:01.913Z,101585.16
2022-10-30T13:25:41.396Z,101584.34
2022-10-30T13:28:32.385Z,101592.16
2022-10-30T13:31:24.146Z,101597.97
2022-10-30T13:34:06.165Z,101594.13
2022-10-30T13:36:47.856Z,101591.91
2022-10-30T13:39:49.312Z,101582.91
2022-10-30T13:42:36.313Z,101580.53
2022-10-30T13:45:31.885Z,101584.28
2022-10-30T13:48:08.143Z,101582.31
2022-10-30T13:50:57.375Z,101594.16
2022-10-30T13:53:31.238Z,101588.63
2022-10-30T13:55:59.202Z,101587.72
2022-10-30T13:58:31.764Z,101598.88
2022-10-30T14:01:02.275Z,101604.38
2022-10-30T14:03:29.708Z,101599.19
2022-10-30T14:06:07.986Z,101597.47
2022-10-30T14:09:03.878Z,101589.03
2022-10-30T14:11:31.332Z,101574.06
2022-10-30T14:14:05.466Z,101584.78
2022-10-30T14:16:46.250Z,101580.19
2022-10-30T14:19:15.893Z,101574.69
2022-10-30T14:21:57.007Z,101566.31
2022-10-30T14:24:35.645Z,101567.09
2022-10-30T14:27:05.839Z,101573.81
2022-10-30T14:29:36.092Z,101574.59
2022-10-30T14:32:04.625Z,101571.00
2022-10-30T14:34:41.147Z,101584.56
2022-10-30T14:37:08.632Z,101597.25
2022-10-30T14:39:44.603Z,101609.84
2022-10-30T14:42:29.188Z,101619.16
2022-10-30T14:45:15.339Z,101616.78
2022-10-30T14:48:17.919Z,101619.63
2022-10-30T14:51:05.547Z,101627.72
2022-10-30T14:53:57.482Z,101627.00
2022-10-30T14:56:50.228Z,101630.91
2022-10-30T14:59:17.696Z,101620.44
2022-10-30T15:02:15.700Z,101613.44
2022-10-30T15:05:09.664Z,101617.00
2022-10-30T15:07:59.219Z,101613.72
2022-10-30T15:10:36.176Z,101620.72
2022-10-30T15:13:20.724Z,101629.69
2022-10-30T15:16:03.386Z,101634.41
2022-10-30T15:18:31.599Z,101647.50
2022-10-30T15:21:08.437Z,101659.28
2022-10-30T15:23:38.190Z,101670.91
2022-10-30T15:26:10.067Z,101676.19
2022-10-30T15:28:38.167Z,101676.19
2022-10-30T15:31:09.817Z,101658.97
2022-10-30T15:33:38.387Z,101680.91
2022-10-30T15:36:06.736Z,101688.19
2022-10-30T15:38:34.237Z,101683.09
2022-10-30T15:41:04.053Z,101694.66
2022-10-30T15:43:38.610Z,101712.50
2022-10-30T15:46:12.056Z,101708.16
2022-10-30T15:48:46.508Z,101730.38
2022-10-30T15:51:20.768Z,101725.97
2022-10-30T15:53:48.250Z,101733.97
2022-10-30T15:56:29.995Z,101742.03
2022-10-30T15:59:03.018Z,101749.19
2022-10-30T16:01:45.387Z,101755.38
2022-10-30T16:04:22.457Z,101736.38
2022-10-30T16:07:01.776Z,101759.28
2022-10-30T16:09:29.879Z,101749.72
2022-10-30T16:12:00.309Z,101749.97
2022-10-30T16:14:32.575Z,101754.44
2022-10-30T16:17:03.856Z,101758.81
2022-10-30T16:19:36.004Z,101754.59
2022-10-30T16:22:03.443Z,101765.16
2022-10-30T16:24:34.088Z,101758.31
2022-10-30T16:27:18.206Z,101770.63
2022-10-30T16:29:47.878Z,101779.53
2022-10-30T16:32:22.738Z,101779.56
2022-10-30T16:34:53.206Z,101776.22
2022-10-30T16:37:27.676Z,101774.66
2022-10-30T16:39:56.410Z,101786.91
2022-10-30T16:42:26.451Z,101783.56
2022-10-30T16:45:27.013Z,101785.28
2022-10-30T16:48:08.304Z,101779.31
2022-10-30T16:50:38.415Z,101785.53
2022-10-30T16:53:25.657Z,101789.06
2022-10-30T16:55:57.834Z,101782.13
2022-10-30T16:58:27.383Z,101788.28
2022-10-30T17:00:57.788Z,101789.19
2022-10-30T17:03:29.102Z,101788.47
2022-10-30T17:06:06.761Z,101797.19
2022-10-30T17:08:40.561Z,101793.75
2022-10-30T17:11:21.850Z,101778.84
2022-10-30T17:13:55.239Z,101773.66
2022-10-30T17:16:33.980Z,101778.91
2022-10-30T17:19:22.991Z,101771.91
2022-10-30T17:21:54.223Z,101787.66
2022-10-30T17:24:25.425Z,101787.72
2022-10-30T17:26:58.569Z,101788.59
2022-10-30T17:29:53.151Z,101776.44
2022-10-30T17:32:22.244Z,101773.00
2022-10-30T17:35:11.187Z,101774.84
2022-10-30T17:37:38.650Z,101769.66
2022-10-30T17:40:06.629Z,101797.72
2022-10-30T17:42:34.822Z,101800.41
2022-10-30T17:45:02.282Z,101811.84
2022-10-30T17:47:29.828Z,101819.81
2022-10-30T17:49:57.512Z,101814.56
2022-10-30T17:52:24.986Z,101818.94
2022-10-30T17:54:52.429Z,101828.59
2022-10-30T17:57:19.923Z,101821.63
2022-10-30T17:59:47.381Z,101834.78
2022-10-30T18:02:19.959Z,101850.53
2022-10-30T18:04:48.738Z,101850.56
2022-10-30T18:07:17.512Z,101864.53
2022-10-30T18:09:45.658Z,101870.63
2022-10-30T18:12:19.125Z,101862.78
2022-10-30T18:14:46.870Z,101865.47
2022-10-30T18:17:14.326Z,101873.28
2022-10-30T18:19:41.812Z,101875.91
2022-10-30T18:22:10.649Z,101879.50
2022-10-30T18:24:38.167Z,101889.16
2022-10-30T18:27:05.650Z,101898.78
2022-10-30T18:29:33.113Z,101900.50
2022-10-30T18:32:04.306Z,101919.69
2022-10-30T18:34:34.570Z,101923.22
2022-10-30T18:37:02.042Z,101914.47
2022-10-30T18:39:29.499Z,101918.78
2022-10-30T18:41:57.048Z,101915.34
2022-10-30T18:44:24.560Z,101913.66
2022-10-30T18:46:52.011Z,101923.25
2022-10-30T18:49:24.288Z,101911.06
2022-10-30T18:51:51.824Z,101911.16
2022-10-30T18:54:19.262Z,101914.69
2022-10-30T18:56:46.711Z,101908.66
2022-10-30T18:59:14.149Z,101905.25
2022-10-30T19:01:42.972Z,101907.00
2022-10-30T19:04:11.539Z,101909.69
2022-10-30T19:06:39.383Z,101921.94
2022-10-30T19:09:06.995Z,101927.25
2022-10-30T19:11:36.326Z,101925.53
2022-10-30T19:14:06.649Z,101933.38
2022-10-30T19:16:34.108Z,101937.75
2022-10-30T19:19:01.588Z,101936.88
2022-10-30T19:21:32.035Z,101936.91
2022-10-30T19:24:02.448Z,101929.06
2022-10-30T19:26:29.912Z,101932.59
2022-10-30T19:28:57.662Z,101940.44
2022-10-30T19:31:25.174Z,101942.25
2022-10-30T19:33:57.541Z,101941.41
2022-10-30T19:36:36.889Z,101947.50
2022-10-30T19:39:11.193Z,101942.31
2022-10-30T19:41:39.865Z,101950.22
2022-10-30T19:44:07.735Z,101941.53
2022-10-30T19:46:35.726Z,101941.59
2022-10-30T19:49:24.011Z,101943.38
2022-10-30T19:51:51.506Z,101936.41
2022-10-30T19:54:18.969Z,101951.25
2022-10-30T19:56:46.425Z,101974.78
2022-10-30T19:59:16.023Z,101969.59
2022-10-30T20:01:44.546Z,101971.34
2022-10-30T20:04:12.658Z,101976.63
2022-10-30T20:06:40.220Z,101967.88
2022-10-30T20:09:11.769Z,101957.41
2022-10-30T20:11:39.322Z,101963.53
2022-10-30T20:14:06.800Z,101960.97
2022-10-30T20:16:34.268Z,101981.00
2022-10-30T20:19:01.712Z,101992.34
2022-10-30T20:21:29.285Z,101988.88
2022-10-30T20:23:56.733Z,101998.50
2022-10-30T20:26:29.065Z,101990.66
2022-10-30T20:28:56.816Z,101993.25
2022-10-30T20:31:24.302Z,101982.81
2022-10-30T20:33:51.800Z,101988.03
2022-10-30T20:36:19.270Z,101985.41
2022-10-30T20:38:46.783Z,101993.28
2022-10-30T20:41:22.950Z,101985.44
2022-10-30T20:43:51.178Z,101988.94
2022-10-30T20:46:19.212Z,101990.63
2022-10-30T20:48:46.751Z,101987.16
2022-10-30T20:51:14.585Z,101985.44
2022-10-30T20:53:42.052Z,101997.63
2022-10-30T20:56:11.184Z,101990.66
2022-10-30T20:58:38.713Z,101992.38
2022-10-30T21:01:06.350Z,101992.38
2022-10-30T21:03:33.928Z,101997.63
2022-10-30T21:06:02.471Z,101987.16
2022-10-30T21:08:32.380Z,101999.34
2022-10-30T21:11:01.309Z,101997.63
2022-10-30T21:13:28.888Z,101997.59
2022-10-30T21:16:00.831Z,101996.75
2022-10-30T21:18:28.668Z,102001.09
2022-10-30T21:21:01.349Z,102002.84
2022-10-30T21:23:28.861Z,102004.59
2022-10-30T21:26:00.688Z,102015.06
2022-10-30T21:28:28.195Z,102008.94
2022-10-30T21:30:55.676Z,102016.78
2022-10-30T21:33:23.532Z,102011.53
2022-10-30T21:35:50.975Z,102016.78
2022-10-30T21:38:18.433Z,102015.88
2022-10-30T21:40:45.892Z,102013.28
2022-10-30T21:43:13.325Z,102017.59
2022-10-30T21:45:40.751Z,102023.69
2022-10-30T21:48:08.184Z,102032.41
2022-10-30T21:50:35.604Z,102036.72
2022-10-30T21:53:03.143Z,102038.44
2022-10-30T21:55:30.607Z,102041.03
2022-10-30T21:57:58.392Z,102041.03
2022-10-30T22:00:26.004Z,102019.25
2022-10-30T22:02:54.299Z,102034.00
2022-10-30T22:05:21.754Z,102028.75
2022-10-30T22:07:49.181Z,102030.47
2022-10-30T22:10:16.684Z,102037.41
2022-10-30T22:12:44.225Z,102039.13
2022-10-30T22:15:11.912Z,102039.94
2022-10-30T22:17:39.378Z,102042.53
2022-10-30T22:20:07.465Z,102041.59
2022-10-30T22:22:35.030Z,102031.16
2022-10-30T22:25:02.564Z,102043.31
2022-10-30T22:27:29.989Z,102044.19
2022-10-30T22:29:57.483Z,102047.63
2022-10-30T22:32:24.981Z,102052.84
2022-10-30T22:34:52.445Z,102052.84
2022-10-30T22:37:19.944Z,102052.84
2022-10-30T22:39:47.396Z,102048.47
2022-10-30T22:42:14.871Z,102054.56
2022-10-30T22:44:42.321Z,102059.81
2022-10-30T22:47:09.773Z,102055.44
2022-10-30T22:49:37.226Z,102059.75
2022-10-30T22:52:05.158Z,102058.03
2022-10-30T22:54:32.696Z,102055.41
2022-10-30T22:57:00.201Z,102062.34
2022-10-30T22:59:27.920Z,102066.69
2022-10-30T23:01:55.394Z,102065.78
2022-10-30T23:04:22.908Z,102077.06
2022-10-30T23:06:50.380Z,102077.94
2022-10-30T23:09:22.128Z,102079.66
2022-10-30T23:11:49.847Z,102082.25
2022-10-30T23:14:18.857Z,102087.41
2022-10-30T23:16:46.325Z,102084.81
2022-10-30T23:19:13.888Z,102077.84
2022-10-30T23:21:41.350Z,102080.41
2022-10-30T23:24:09.085Z,102090.88
2022-10-30T23:26:37.155Z,102089.16
2022-10-30T23:29:05.451Z,102091.75
2022-10-30T23:31:36.839Z,102096.13
2022-10-30T23:34:08.181Z,102097.00
2022-10-30T23:36:36.175Z,102089.19
2022-10-30T23:39:07.137Z,102099.59
2022-10-30T23:41:35.254Z,102088.31
2022-10-30T23:44:08.205Z,102090.94
2022-10-30T23:46:36.702Z,102090.94
2022-10-30T23:49:05.701Z,102087.47
2022-10-30T23:51:33.628Z,102085.72
2022-10-30T23:54:01.175Z,102093.53
2022-10-30T23:56:29.839Z,102090.88
2022-10-30T23:58:57.939Z,102094.34
